createdAt,value
2018-11-28T00:00:24.041Z,11.13
2018-11-28T00:02:58.569Z,12.73
2018-11-28T00:05:31.714Z,12.07
2018-11-28T00:08:04.903Z,11.63
2018-11-28T00:10:37.352Z,10.80
2018-11-28T00:13:11.152Z,11.73
2018-11-28T00:15:44.319Z,13.23
2018-11-28T00:18:17.502Z,12.87
2018-11-28T00:21:26.071Z,12.80
2018-11-28T00:23:59.282Z,13.43
2018-11-28T00:26:31.588Z,12.57
2018-11-28T00:29:03.895Z,12.07
2018-11-28T00:31:37.655Z,12.07
2018-11-28T00:34:11.010Z,11.87
2018-11-28T00:36:43.392Z,11.13
2018-11-28T00:39:18.192Z,10.53
2018-11-28T00:44:38.705Z,10.43
2018-11-28T00:47:16.806Z,11.17
2018-11-28T00:49:50.422Z,11.10
2018-11-28T00:52:30.607Z,10.57
2018-11-28T00:55:08.520Z,11.27
2018-11-28T00:57:43.343Z,10.83
2018-11-28T01:00:25.393Z,11.03
2018-11-28T01:03:03.902Z,10.83
2018-11-28T01:05:43.830Z,10.23
2018-11-28T01:08:29.221Z,10.63
2018-11-28T01:14:28.496Z,13.13
2018-11-28T01:17:03.845Z,11.13
2018-11-28T01:20:12.203Z,10.97
2018-11-28T01:22:48.047Z,11.83
2018-11-28T01:25:30.172Z,12.90
2018-11-28T01:31:06.539Z,13.70
2018-11-28T01:33:42.731Z,14.40
2018-11-28T01:36:16.311Z,14.30
2018-11-28T01:38:51.788Z,13.70
2018-11-28T01:41:24.758Z,13.53
2018-11-28T01:43:58.107Z,14.00
2018-11-28T01:46:32.301Z,13.63
2018-11-28T01:49:10.558Z,12.03
2018-11-28T01:51:49.938Z,11.77
2018-11-28T01:54:23.896Z,11.20
2018-11-28T01:56:58.987Z,12.27
2018-11-28T01:59:33.229Z,12.43
2018-11-28T02:02:09.758Z,12.23
2018-11-28T02:05:22.995Z,12.97
2018-11-28T02:07:55.673Z,12.57
2018-11-28T02:10:30.302Z,13.23
2018-11-28T02:13:02.921Z,14.63
2018-11-28T02:15:37.472Z,12.50
2018-11-28T02:24:27.904Z,12.20
2018-11-28T02:27:06.711Z,12.17
2018-11-28T02:29:50.818Z,13.47
2018-11-28T02:35:55.552Z,13.90
2018-11-28T02:38:28.011Z,12.93
2018-11-28T02:41:05.967Z,11.30
2018-11-28T02:43:41.501Z,14.43
2018-11-28T02:55:25.549Z,13.23
2018-11-28T03:01:07.974Z,12.33
2018-11-28T03:06:43.770Z,11.80
2018-11-28T03:10:01.089Z,11.73
2018-11-28T03:25:49.668Z,11.77
2018-11-28T03:28:38.992Z,11.33
2018-11-28T03:37:11.328Z,12.70
2018-11-28T03:39:48.062Z,10.97
2018-11-28T03:42:37.840Z,13.80
2018-11-28T03:45:23.079Z,12.13
2018-11-28T03:48:02.604Z,12.20
2018-11-28T04:00:02.756Z,11.27
2018-11-28T04:02:43.312Z,10.07
2018-11-28T04:05:28.283Z,12.03
2018-11-28T04:08:16.927Z,12.13
2018-11-28T04:10:58.481Z,11.07
2018-11-28T04:16:43.976Z,11.87
2018-11-28T04:22:19.492Z,12.13
2018-11-28T04:24:56.535Z,12.33
2018-11-28T04:27:57.727Z,13.00
2018-11-28T04:30:54.165Z,11.73
2018-11-28T04:33:47.787Z,12.20
2018-11-28T04:44:21.494Z,12.80
2018-11-28T04:50:53.008Z,12.63
2018-11-28T04:53:28.560Z,22.70
2018-11-28T04:56:18.130Z,12.43
2018-11-28T04:59:07.654Z,12.93
2018-11-28T05:01:49.031Z,12.10
2018-11-28T05:07:30.092Z,10.73
2018-11-28T05:10:08.254Z,11.60
2018-11-28T05:12:43.889Z,11.70
2018-11-28T05:18:03.955Z,11.87
2018-11-28T05:20:45.367Z,11.77
2018-11-28T05:23:20.605Z,11.50
2018-11-28T05:26:00.640Z,11.83
2018-11-28T05:28:34.735Z,12.63
2018-11-28T05:31:14.037Z,12.03
2018-11-28T05:33:56.830Z,12.23
2018-11-28T05:36:37.457Z,12.20
2018-11-28T05:39:11.734Z,11.77
2018-11-28T05:41:47.027Z,10.97
2018-11-28T05:44:20.663Z,11.23
2018-11-28T05:46:56.742Z,11.37
2018-11-28T05:53:24.348Z,11.63
2018-11-28T05:56:04.253Z,11.67
2018-11-28T05:58:39.143Z,11.57
2018-11-28T06:04:00.504Z,10.97
2018-11-28T06:06:40.627Z,11.47
2018-11-28T06:09:23.044Z,11.23
2018-11-28T06:12:00.699Z,11.80
2018-11-28T06:14:33.939Z,11.87
2018-11-28T06:17:08.191Z,11.00
2018-11-28T06:19:45.754Z,12.83
2018-11-28T06:22:19.424Z,11.33
2018-11-28T06:24:57.524Z,11.40
2018-11-28T06:27:31.713Z,12.10
2018-11-28T06:32:50.974Z,12.50
2018-11-28T06:35:22.987Z,11.57
2018-11-28T06:37:58.745Z,13.10
2018-11-28T06:40:34.933Z,12.07
2018-11-28T06:43:12.022Z,12.27
2018-11-28T06:45:47.980Z,12.90
2018-11-28T06:48:21.119Z,12.40
2018-11-28T06:51:00.587Z,11.77
2018-11-28T06:53:38.759Z,11.67
2018-11-28T06:56:16.548Z,11.90
2018-11-28T07:01:33.976Z,11.80
2018-11-28T07:04:07.985Z,11.37
2018-11-28T07:06:44.783Z,11.60
2018-11-28T07:09:19.846Z,12.67
2018-11-28T07:15:25.367Z,12.07
2018-11-28T07:21:20.200Z,11.07
2018-11-28T07:23:57.699Z,11.43
2018-11-28T07:26:32.264Z,11.33
2018-11-28T07:29:06.900Z,12.07
2018-11-28T07:31:44.000Z,12.20
2018-11-28T07:34:17.004Z,13.00
2018-11-28T07:36:51.344Z,12.80
2018-11-28T07:43:06.355Z,12.30
2018-11-28T07:45:45.267Z,12.20
2018-11-28T07:48:18.245Z,11.87
2018-11-28T07:50:52.899Z,12.00
2018-11-28T07:53:29.090Z,10.73
2018-11-28T07:56:04.878Z,11.13
2018-11-28T07:58:46.579Z,9.80
2018-11-28T08:02:25.864Z,10.67
2018-11-28T08:05:09.063Z,10.33
2018-11-28T08:11:17.920Z,12.17
2018-11-28T08:13:55.099Z,11.53
2018-11-28T08:17:12.624Z,11.97
2018-11-28T08:19:51.757Z,11.57
2018-11-28T08:22:25.892Z,10.93
2018-11-28T08:25:01.612Z,11.17
2018-11-28T08:27:40.428Z,10.37
2018-11-28T08:30:45.242Z,10.30
2018-11-28T08:33:19.637Z,9.30
2018-11-28T08:35:59.062Z,10.00
2018-11-28T08:41:53.252Z,9.67
2018-11-28T08:44:26.579Z,9.70
2018-11-28T08:47:02.248Z,10.23
2018-11-28T08:49:36.461Z,9.63
2018-11-28T08:52:12.933Z,10.43
2018-11-28T08:54:50.659Z,10.23
2018-11-28T08:57:26.223Z,11.33
2018-11-28T09:00:02.670Z,11.10
2018-11-28T09:02:39.672Z,11.07
2018-11-28T09:08:35.706Z,9.87
2018-11-28T09:11:16.802Z,10.00
2018-11-28T09:14:08.619Z,10.47
2018-11-28T09:16:46.744Z,9.73
2018-11-28T09:19:22.384Z,10.40
2018-11-28T09:21:59.666Z,10.20
2018-11-28T09:24:34.384Z,9.50
2018-11-28T09:27:10.856Z,10.77
2018-11-28T09:29:44.437Z,10.40
2018-11-28T09:32:19.173Z,9.13
2018-11-28T09:34:53.754Z,9.33
2018-11-28T09:37:28.431Z,9.93
2018-11-28T09:40:01.946Z,10.80
2018-11-28T09:42:35.481Z,9.67
2018-11-28T09:45:09.226Z,10.77
2018-11-28T09:47:42.727Z,10.83
2018-11-28T09:50:26.205Z,11.17
2018-11-28T09:52:59.720Z,10.73
2018-11-28T09:55:33.341Z,10.67
2018-11-28T09:58:09.497Z,12.10
2018-11-28T10:00:44.409Z,10.97
2018-11-28T10:03:19.380Z,9.40
2018-11-28T10:05:53.992Z,12.03
2018-11-28T10:11:41.789Z,9.53
2018-11-28T10:14:16.866Z,11.23
2018-11-28T10:16:50.684Z,8.80
2018-11-28T10:19:24.643Z,9.67
2018-11-28T10:21:58.192Z,11.10
2018-11-28T10:24:32.459Z,11.60
2018-11-28T10:27:06.883Z,11.83
2018-11-28T10:29:40.204Z,11.07
2018-11-28T10:32:13.495Z,12.20
2018-11-28T10:34:46.936Z,12.43
2018-11-28T10:37:20.137Z,12.10
2018-11-28T10:39:53.634Z,12.17
2018-11-28T10:42:28.159Z,11.93
2018-11-28T10:45:01.793Z,11.83
2018-11-28T10:47:35.834Z,11.27
2018-11-28T10:50:11.795Z,10.73
2018-11-28T10:52:45.317Z,11.90
2018-11-28T10:59:19.500Z,10.83
2018-11-28T11:01:57.847Z,12.37
2018-11-28T11:04:35.600Z,12.60
2018-11-28T11:07:12.846Z,11.73
2018-11-28T11:09:50.596Z,12.73
2018-11-28T11:12:27.762Z,12.80
2018-11-28T11:15:01.676Z,13.00
2018-11-28T11:19:05.315Z,13.30
2018-11-28T11:21:38.429Z,11.57
2018-11-28T11:24:12.771Z,10.80
2018-11-28T11:26:46.732Z,11.07
2018-11-28T11:29:22.274Z,12.33
2018-11-28T11:34:47.733Z,11.30
2018-11-28T11:37:29.593Z,11.63
2018-11-28T11:44:07.030Z,10.80
2018-11-28T11:49:30.874Z,10.87
2018-11-28T11:52:05.551Z,12.23
2018-11-28T11:54:39.590Z,10.83
2018-11-28T11:57:14.066Z,11.83
2018-11-28T13:04:27.571Z,7.80
2018-11-28T13:27:31.925Z,7.97
2018-11-28T13:30:22.530Z,6.77
2018-11-28T14:01:54.824Z,7.20
2018-11-28T14:04:33.103Z,6.13
2018-11-28T14:07:08.310Z,6.70
2018-11-28T14:09:42.199Z,7.30
2018-11-28T14:12:16.191Z,5.73
2018-11-28T14:14:54.078Z,7.20
2018-11-28T14:17:32.243Z,7.70
2018-11-28T14:20:08.525Z,7.00
2018-11-28T14:23:12.944Z,6.60
2018-11-28T14:34:19.389Z,8.70
2018-11-28T14:42:29.190Z,8.93
2018-11-28T14:45:11.096Z,5.97
2018-11-28T14:47:52.414Z,5.83
2018-11-28T14:50:30.788Z,4.07
2018-11-28T14:53:05.437Z,5.17
2018-11-28T14:59:03.105Z,4.67
2018-11-28T15:01:37.384Z,4.90
2018-11-28T15:04:13.444Z,4.40
2018-11-28T15:06:58.109Z,5.23
2018-11-28T15:09:37.040Z,4.50
2018-11-28T15:12:14.990Z,4.53
2018-11-28T15:14:52.512Z,5.00
2018-11-28T15:17:28.345Z,5.30
2018-11-28T15:20:10.656Z,5.03
2018-11-28T15:26:06.181Z,4.73
2018-11-28T15:28:49.911Z,5.00
2018-11-28T15:31:25.231Z,5.23
2018-11-28T15:34:01.753Z,6.30
2018-11-28T15:36:36.424Z,6.30
2018-11-28T15:42:54.883Z,4.50
2018-11-28T15:45:33.372Z,4.57
2018-11-28T15:48:34.343Z,4.77
2018-11-28T16:01:14.436Z,4.13
2018-11-28T16:03:52.844Z,4.33
2018-11-28T16:06:34.332Z,3.23
2018-11-28T16:09:14.596Z,4.07
2018-11-28T16:29:49.305Z,2.80
2018-11-28T16:35:34.139Z,4.10
2018-11-28T16:38:13.820Z,3.57
2018-11-28T16:40:48.475Z,4.20
2018-11-28T16:43:23.389Z,2.90
2018-11-28T16:46:24.941Z,3.90
2018-11-28T16:49:02.639Z,4.63
2018-11-28T16:51:38.134Z,5.93
2018-11-28T16:54:20.300Z,3.87
2018-11-28T16:56:53.525Z,3.50
2018-11-28T17:02:26.877Z,4.40
2018-11-28T17:04:59.923Z,2.90
2018-11-28T17:07:45.311Z,5.50
2018-11-28T17:10:21.141Z,5.13
2018-11-28T17:13:03.044Z,3.63
2018-11-28T17:15:35.722Z,3.27
2018-11-28T17:18:13.000Z,3.40
2018-11-28T17:20:51.169Z,3.30
2018-11-28T17:23:27.799Z,2.97
2018-11-28T17:26:11.888Z,4.73
2018-11-28T17:28:57.234Z,5.50
2018-11-28T17:31:33.627Z,7.83
2018-11-28T17:34:39.053Z,5.03
2018-11-28T17:37:37.491Z,4.17
2018-11-28T17:40:25.276Z,4.03
2018-11-28T17:45:48.410Z,5.20
2018-11-28T17:48:22.999Z,6.10
2018-11-28T17:50:56.292Z,5.47
2018-11-28T17:53:35.390Z,5.40
2018-11-28T17:56:08.743Z,4.93
2018-11-28T17:58:41.444Z,4.63
2018-11-28T18:01:19.086Z,4.30
2018-11-28T18:03:56.189Z,6.50
2018-11-28T18:06:29.597Z,4.43
2018-11-28T18:09:07.399Z,5.80
2018-11-28T18:14:28.572Z,12.40
2018-11-28T18:17:15.468Z,6.45
2018-11-28T18:19:59.179Z,4.17
2018-11-28T18:22:37.755Z,4.42
2018-11-28T18:28:06.911Z,4.45
2018-11-28T18:30:49.056Z,5.90
2018-11-28T18:33:32.057Z,8.37
2018-11-28T18:39:39.660Z,3.90
2018-11-28T18:42:13.791Z,3.98
2018-11-28T18:44:47.546Z,3.23
2018-11-28T18:47:20.758Z,4.17
2018-11-28T18:49:54.660Z,4.53
2018-11-28T18:55:19.174Z,4.45
2018-11-28T18:57:56.143Z,3.55
2018-11-28T19:00:32.628Z,4.00
2018-11-28T19:03:21.227Z,4.03
2018-11-28T19:05:55.722Z,5.22
2018-11-28T19:08:32.145Z,3.80
2018-11-28T19:11:13.080Z,3.70
2018-11-28T19:13:53.811Z,3.20
2018-11-28T19:16:38.611Z,4.00
2018-11-28T19:19:13.599Z,3.50
2018-11-28T19:21:55.171Z,2.90
2018-11-28T19:24:36.534Z,2.77
2018-11-28T19:27:15.226Z,3.17
2018-11-28T19:29:55.621Z,7.35
2018-11-28T19:32:38.444Z,3.92
2018-11-28T19:35:21.751Z,3.85
2018-11-28T19:38:31.315Z,4.85
2018-11-28T19:41:09.655Z,4.25
2018-11-28T19:43:52.496Z,3.90
2018-11-28T19:46:26.190Z,4.90
2018-11-28T19:49:24.849Z,4.37
2018-11-28T19:52:07.138Z,4.67
2018-11-28T19:57:33.760Z,6.40
2018-11-28T20:00:27.423Z,3.30
2018-11-28T20:03:13.807Z,3.05
2018-11-28T20:05:49.345Z,4.17
2018-11-28T20:08:28.792Z,4.00
2018-11-28T20:11:03.871Z,3.10
2018-11-28T20:16:48.526Z,3.60
2018-11-28T20:25:22.170Z,4.05
2018-11-28T20:33:51.826Z,4.03
2018-11-28T20:36:39.371Z,3.83
2018-11-28T20:39:19.031Z,4.33
2018-11-28T20:41:53.015Z,5.90
2018-11-28T20:44:47.043Z,5.60
2018-11-28T20:47:24.302Z,3.63
2018-11-28T20:53:50.678Z,3.77
2018-11-28T20:56:41.231Z,4.05
2018-11-28T21:02:23.838Z,4.80
2018-11-28T21:05:03.240Z,4.03
2018-11-28T21:07:57.535Z,5.13
2018-11-28T21:13:47.099Z,7.00
2018-11-28T21:16:36.259Z,5.77
2018-11-28T21:19:36.514Z,5.53
2018-11-28T21:22:09.542Z,6.47
2018-11-28T21:24:50.143Z,6.27
2018-11-28T21:30:29.076Z,4.80
2018-11-28T21:35:59.576Z,5.93
2018-11-28T21:38:36.657Z,6.00
2018-11-28T21:44:02.865Z,7.35
2018-11-28T21:46:36.954Z,5.00
2018-11-28T21:49:15.507Z,5.57
2018-11-28T21:51:48.873Z,6.40
2018-11-28T21:54:21.901Z,6.17
2018-11-28T21:56:57.391Z,6.00
2018-11-28T21:59:46.137Z,6.03
2018-11-28T22:02:20.974Z,5.23
2018-11-28T22:04:58.610Z,6.47
2018-11-28T22:07:33.077Z,7.73
2018-11-28T22:15:44.170Z,5.73
2018-11-28T22:21:10.549Z,6.47
2018-11-28T22:23:56.195Z,7.63
2018-11-28T22:26:28.745Z,5.60
2018-11-28T22:29:03.306Z,5.60
2018-11-28T22:31:38.315Z,6.03
2018-11-28T22:34:12.464Z,4.83
2018-11-28T22:36:45.116Z,5.43
2018-11-28T22:39:19.993Z,5.87
2018-11-28T22:41:53.304Z,5.63
2018-11-28T22:44:26.684Z,5.77
2018-11-28T22:46:59.441Z,6.60
2018-11-28T22:49:33.746Z,5.93
2018-11-28T22:52:07.942Z,5.27
2018-11-28T22:54:46.894Z,5.80
2018-11-28T22:57:19.363Z,4.40
2018-11-28T22:59:54.204Z,4.33
2018-11-28T23:02:48.620Z,4.30
2018-11-28T23:05:22.815Z,3.60
2018-11-28T23:07:56.506Z,3.33
2018-11-28T23:10:30.384Z,3.50
2018-11-28T23:13:07.125Z,4.03
2018-11-28T23:15:40.490Z,4.13
2018-11-28T23:18:16.323Z,3.27
2018-11-28T23:20:50.718Z,4.90
2018-11-28T23:23:25.802Z,3.70
2018-11-28T23:26:01.286Z,4.00
2018-11-28T23:28:43.348Z,3.43
2018-11-28T23:34:45.849Z,4.10
2018-11-28T23:37:28.109Z,3.50
2018-11-28T23:42:52.423Z,3.40
2018-11-28T23:45:26.523Z,4.27
2018-11-28T23:51:16.226Z,4.80
2018-11-28T23:53:49.556Z,3.93
2018-11-28T23:56:24.290Z,4.57
2018-11-28T23:59:01.322Z,5.30
